sensor_id;sensor_type;location;lat;lon;timestamp;pressure;altitude;pressure_sealevel;temperature;humidity
40992;BME280;29633;49.168;9.848;2023-04-19T00:01:26;97429.38;;;14.17;66.40
40992;BME280;29633;49.168;9.848;2023-04-19T00:03:54;97424.16;;;14.17;66.47
40992;BME280;29633;49.168;9.848;2023-04-19T00:06:20;97433.78;;;14.16;66.20
40992;BME280;29633;49.168;9.848;2023-04-19T00:08:48;97421.94;;;14.12;66.28
40992;BME280;29633;49.168;9.848;2023-04-19T00:11:14;97426.22;;;14.13;66.33
40992;BME280;29633;49.168;9.848;2023-04-19T00:13:39;97421.13;;;14.12;66.50
40992;BME280;29633;49.168;9.848;2023-04-19T00:16:05;97414.38;;;14.09;66.30
40992;BME280;29633;49.168;9.848;2023-04-19T00:18:31;97415.22;;;14.10;66.34
40992;BME280;29633;49.168;9.848;2023-04-19T00:20:57;97419.72;;;14.08;66.43
40992;BME280;29633;49.168;9.848;2023-04-19T00:23:22;97420.53;;;14.08;66.42
40992;BME280;29633;49.168;9.848;2023-04-19T00:25:50;97417.94;;;14.08;66.34
40992;BME280;29633;49.168;9.848;2023-04-19T00:28:15;97408.59;;;14.06;66.35
40992;BME280;29633;49.168;9.848;2023-04-19T00:30:41;97409.81;;;14.02;66.42
40992;BME280;29633;49.168;9.848;2023-04-19T00:33:06;97412.41;;;14.02;66.44
40992;BME280;29633;49.168;9.848;2023-04-19T00:35:38;97413.38;;;14.01;66.37
40992;BME280;29633;49.168;9.848;2023-04-19T00:38:05;97413.38;;;14.01;66.32
40992;BME280;29633;49.168;9.848;2023-04-19T00:40:31;97406.63;;;13.98;66.29
40992;BME280;29633;49.168;9.848;2023-04-19T00:42:56;97407.72;;;13.96;66.32
40992;BME280;29633;49.168;9.848;2023-04-19T00:45:22;97408.56;;;13.96;66.25
40992;BME280;29633;49.168;9.848;2023-04-19T00:47:48;97407.97;;;13.93;66.45
40992;BME280;29633;49.168;9.848;2023-04-19T00:50:13;97407.84;;;13.94;66.31
40992;BME280;29633;49.168;9.848;2023-04-19T00:52:39;97401.69;;;13.95;66.48
40992;BME280;29633;49.168;9.848;2023-04-19T00:55:05;97400.84;;;13.95;66.34
40992;BME280;29633;49.168;9.848;2023-04-19T00:57:31;97408.94;;;13.92;66.41
40992;BME280;29633;49.168;9.848;2023-04-19T00:59:57;97401.81;;;13.94;66.31
40992;BME280;29633;49.168;9.848;2023-04-19T01:02:23;97395.63;;;13.95;66.34
40992;BME280;29633;49.168;9.848;2023-04-19T01:04:49;97397.53;;;13.93;66.29
40992;BME280;29633;49.168;9.848;2023-04-19T01:07:14;97396.03;;;13.90;66.35
40992;BME280;29633;49.168;9.848;2023-04-19T01:09:42;97396.28;;;13.87;66.18
40992;BME280;29633;49.168;9.848;2023-04-19T01:12:08;97389.28;;;13.88;66.40
40992;BME280;29633;49.168;9.848;2023-04-19T01:14:34;97394.06;;;13.82;66.30
40992;BME280;29633;49.168;9.848;2023-04-19T01:16:59;97387.22;;;13.82;66.31
40992;BME280;29633;49.168;9.848;2023-04-19T01:19:25;97384.72;;;13.80;66.30
40992;BME280;29633;49.168;9.848;2023-04-19T01:21:51;97386.75;;;13.76;66.32
40992;BME280;29633;49.168;9.848;2023-04-19T01:24:17;97384.25;;;13.75;66.23
40992;BME280;29633;49.168;9.848;2023-04-19T01:26:42;97380.84;;;13.74;66.43
40992;BME280;29633;49.168;9.848;2023-04-19T01:29:08;97381.81;;;13.73;66.22
40992;BME280;29633;49.168;9.848;2023-04-19T01:31:33;97380.25;;;13.71;66.28
40992;BME280;29633;49.168;9.848;2023-04-19T01:33:59;97372.69;;;13.68;66.36
40992;BME280;29633;49.168;9.848;2023-04-19T01:36:25;97374.72;;;13.64;66.42
40992;BME280;29633;49.168;9.848;2023-04-19T01:38:52;97371.44;;;13.62;66.25
40992;BME280;29633;49.168;9.848;2023-04-19T01:41:17;97364.84;;;13.58;66.33
40992;BME280;29633;49.168;9.848;2023-04-19T01:43:44;97367.56;;;13.57;66.50
40992;BME280;29633;49.168;9.848;2023-04-19T01:46:10;97358.94;;;13.56;66.26
40992;BME280;29633;49.168;9.848;2023-04-19T01:48:35;97358.22;;;13.54;66.26
40992;BME280;29633;49.168;9.848;2023-04-19T01:51:01;97358.38;;;13.53;66.39
40992;BME280;29633;49.168;9.848;2023-04-19T01:53:27;97358.47;;;13.51;66.36
40992;BME280;29633;49.168;9.848;2023-04-19T01:55:53;97350.78;;;13.50;66.43
40992;BME280;29633;49.168;9.848;2023-04-19T01:58:19;97353.53;;;13.48;66.32
40992;BME280;29633;49.168;9.848;2023-04-19T02:00:45;97350.22;;;13.46;66.38
40992;BME280;29633;49.168;9.848;2023-04-19T02:03:10;97349.53;;;13.44;66.27
40992;BME280;29633;49.168;9.848;2023-04-19T02:05:38;97349.63;;;13.43;66.33
40992;BME280;29633;49.168;9.848;2023-04-19T02:08:03;97349.78;;;13.41;66.49
40992;BME280;29633;49.168;9.848;2023-04-19T02:10:29;97346.59;;;13.38;66.21
40992;BME280;29633;49.168;9.848;2023-04-19T02:12:55;97343.44;;;13.34;66.42
40992;BME280;29633;49.168;9.848;2023-04-19T02:15:20;97342.03;;;13.30;66.47
40992;BME280;29633;49.168;9.848;2023-04-19T02:17:46;97341.31;;;13.28;66.42
40992;BME280;29633;49.168;9.848;2023-04-19T02:20:12;97346.78;;;13.25;66.43
40992;BME280;29633;49.168;9.848;2023-04-19T02:22:37;97336.59;;;13.22;66.45
40992;BME280;29633;49.168;9.848;2023-04-19T02:25:03;97341.94;;;13.20;66.51
40992;BME280;29633;49.168;9.848;2023-04-19T02:27:29;97336.88;;;13.19;66.29
40992;BME280;29633;49.168;9.848;2023-04-19T02:29:55;97343.97;;;13.17;66.21
40992;BME280;29633;49.168;9.848;2023-04-19T02:32:20;97342.34;;;13.16;66.37
40992;BME280;29633;49.168;9.848;2023-04-19T02:34:46;97341.50;;;13.15;66.44
40992;BME280;29633;49.168;9.848;2023-04-19T02:37:12;97341.75;;;13.12;66.41
40992;BME280;29633;49.168;9.848;2023-04-19T02:39:38;97334.06;;;13.11;66.31
40992;BME280;29633;49.168;9.848;2023-04-19T02:42:06;97333.34;;;13.09;66.45
40992;BME280;29633;49.168;9.848;2023-04-19T02:44:31;97334.28;;;13.08;66.42
40992;BME280;29633;49.168;9.848;2023-04-19T02:46:57;97338.81;;;13.06;66.39
40992;BME280;29633;49.168;9.848;2023-04-19T02:49:23;97333.81;;;13.03;66.45
40992;BME280;29633;49.168;9.848;2023-04-19T02:51:49;97336.56;;;13.01;66.29
40992;BME280;29633;49.168;9.848;2023-04-19T02:54:16;97339.28;;;13.00;66.39
40992;BME280;29633;49.168;9.848;2023-04-19T02:56:42;97324.75;;;12.97;66.30
40992;BME280;29633;49.168;9.848;2023-04-19T02:59:07;97325.69;;;12.96;66.22
40992;BME280;29633;49.168;9.848;2023-04-19T03:01:33;97324.03;;;12.95;66.14
40992;BME280;29633;49.168;9.848;2023-04-19T03:03:59;97324.03;;;12.95;66.43
40992;BME280;29633;49.168;9.848;2023-04-19T03:06:24;97323.34;;;12.93;66.33
40992;BME280;29633;49.168;9.848;2023-04-19T03:08:50;97326.19;;;12.90;66.47
40992;BME280;29633;49.168;9.848;2023-04-19T03:11:16;97316.88;;;12.88;66.40
40992;BME280;29633;49.168;9.848;2023-04-19T03:13:42;97310.00;;;12.87;66.36
40992;BME280;29633;49.168;9.848;2023-04-19T03:16:08;97318.88;;;12.84;66.30
40992;BME280;29633;49.168;9.848;2023-04-19T03:18:34;97312.13;;;12.81;66.13
40992;BME280;29633;49.168;9.848;2023-04-19T03:20:59;97320.88;;;12.80;66.52
40992;BME280;29633;49.168;9.848;2023-04-19T03:23:25;97322.78;;;12.78;66.37
40992;BME280;29633;49.168;9.848;2023-04-19T03:25:52;97327.31;;;12.76;66.37
40992;BME280;29633;49.168;9.848;2023-04-19T03:28:17;97317.13;;;12.73;66.36
40992;BME280;29633;49.168;9.848;2023-04-19T03:30:43;97316.31;;;12.73;66.45
40992;BME280;29633;49.168;9.848;2023-04-19T03:33:08;97315.59;;;12.71;66.49
40992;BME280;29633;49.168;9.848;2023-04-19T03:35:34;97308.75;;;12.70;66.47
40992;BME280;29633;49.168;9.848;2023-04-19T03:38:00;97308.75;;;12.70;66.36
40992;BME280;29633;49.168;9.848;2023-04-19T03:40:26;97312.31;;;12.69;66.43
40992;BME280;29633;49.168;9.848;2023-04-19T03:42:51;97309.81;;;12.67;66.29
40992;BME280;29633;49.168;9.848;2023-04-19T03:45:17;97302.97;;;12.66;66.40
40992;BME280;29633;49.168;9.848;2023-04-19T03:47:43;97300.50;;;12.65;66.29
40992;BME280;29633;49.168;9.848;2023-04-19T03:50:12;97297.19;;;12.63;66.61
40992;BME280;29633;49.168;9.848;2023-04-19T03:52:37;97296.13;;;12.65;66.47
40992;BME280;29633;49.168;9.848;2023-04-19T03:55:03;97294.47;;;12.64;66.33
40992;BME280;29633;49.168;9.848;2023-04-19T03:57:29;97291.88;;;12.64;66.39
40992;BME280;29633;49.168;9.848;2023-04-19T03:59:55;97292.81;;;12.63;66.54
40992;BME280;29633;49.168;9.848;2023-04-19T04:02:20;97292.94;;;12.62;66.48
40992;BME280;29633;49.168;9.848;2023-04-19T04:04:48;97289.50;;;12.61;66.32
40992;BME280;29633;49.168;9.848;2023-04-19T04:07:17;97291.41;;;12.59;66.42
40992;BME280;29633;49.168;9.848;2023-04-19T04:09:42;97292.38;;;12.58;66.52
40992;BME280;29633;49.168;9.848;2023-04-19T04:12:09;97288.94;;;12.58;66.35
40992;BME280;29633;49.168;9.848;2023-04-19T04:14:37;97288.94;;;12.58;66.51
40992;BME280;29633;49.168;9.848;2023-04-19T04:17:02;97294.00;;;12.59;66.30
40992;BME280;29633;49.168;9.848;2023-04-19T04:19:28;97287.03;;;12.60;66.54
40992;BME280;29633;49.168;9.848;2023-04-19T04:21:53;97296.38;;;12.62;66.30
40992;BME280;29633;49.168;9.848;2023-04-19T04:24:19;97286.91;;;12.61;66.36
40992;BME280;29633;49.168;9.848;2023-04-19T04:26:46;97292.13;;;12.61;66.25
40992;BME280;29633;49.168;9.848;2023-04-19T04:29:14;97293.78;;;12.62;66.35
40992;BME280;29633;49.168;9.848;2023-04-19T04:31:40;97302.38;;;12.63;66.23
40992;BME280;29633;49.168;9.848;2023-04-19T04:34:06;97299.78;;;12.63;66.09
40992;BME280;29633;49.168;9.848;2023-04-19T04:36:34;97298.00;;;12.63;66.15
40992;BME280;29633;49.168;9.848;2023-04-19T04:39:01;97300.59;;;12.63;66.30
40992;BME280;29633;49.168;9.848;2023-04-19T04:41:27;97302.38;;;12.63;66.20
40992;BME280;29633;49.168;9.848;2023-04-19T04:43:58;97302.53;;;12.61;66.19
40992;BME280;29633;49.168;9.848;2023-04-19T04:46:25;97307.81;;;12.60;66.16
40992;BME280;29633;49.168;9.848;2023-04-19T04:48:52;97304.28;;;12.61;66.40
40992;BME280;29633;49.168;9.848;2023-04-19T04:51:18;97298.38;;;12.59;66.46
40992;BME280;29633;49.168;9.848;2023-04-19T04:53:43;97306.16;;;12.59;66.23
40992;BME280;29633;49.168;9.848;2023-04-19T04:56:09;97309.50;;;12.61;66.28
40992;BME280;29633;49.168;9.848;2023-04-19T04:58:35;97304.28;;;12.61;66.12
40992;BME280;29633;49.168;9.848;2023-04-19T05:01:00;97300.75;;;12.62;66.26
40992;BME280;29633;49.168;9.848;2023-04-19T05:03:26;97301.56;;;12.62;66.22
40992;BME280;29633;49.168;9.848;2023-04-19T05:05:52;97301.44;;;12.64;66.24
40992;BME280;29633;49.168;9.848;2023-04-19T05:08:17;97298.00;;;12.63;66.20
40992;BME280;29633;49.168;9.848;2023-04-19T05:10:45;97296.38;;;12.62;66.34
40992;BME280;29633;49.168;9.848;2023-04-19T05:13:11;97304.03;;;12.64;66.24
40992;BME280;29633;49.168;9.848;2023-04-19T05:15:37;97294.47;;;12.64;66.50
40992;BME280;29633;49.168;9.848;2023-04-19T05:18:05;97296.97;;;12.66;66.20
40992;BME280;29633;49.168;9.848;2023-04-19T05:20:31;97295.97;;;12.67;66.35
40992;BME280;29633;49.168;9.848;2023-04-19T05:22:59;97295.03;;;12.68;66.18
40992;BME280;29633;49.168;9.848;2023-04-19T05:25:26;97299.16;;;12.70;66.36
40992;BME280;29633;49.168;9.848;2023-04-19T05:27:51;97297.28;;;12.72;66.34
40992;BME280;29633;49.168;9.848;2023-04-19T05:30:17;97299.75;;;12.74;66.17
40992;BME280;29633;49.168;9.848;2023-04-19T05:32:43;97304.69;;;12.77;66.22
40992;BME280;29633;49.168;9.848;2023-04-19T05:35:09;97300.22;;;12.79;66.15
40992;BME280;29633;49.168;9.848;2023-04-19T05:37:35;97297.47;;;12.80;66.34
40992;BME280;29633;49.168;9.848;2023-04-19T05:40:03;97292.25;;;12.80;66.36
40992;BME280;29633;49.168;9.848;2023-04-19T05:42:34;97292.16;;;12.82;66.43
40992;BME280;29633;49.168;9.848;2023-04-19T05:45:00;97296.28;;;12.84;66.39
40992;BME280;29633;49.168;9.848;2023-04-19T05:47:25;97290.84;;;12.88;66.20
40992;BME280;29633;49.168;9.848;2023-04-19T05:49:51;97286.22;;;12.91;66.24
40992;BME280;29633;49.168;9.848;2023-04-19T05:52:17;97292.09;;;12.93;66.25
40992;BME280;29633;49.168;9.848;2023-04-19T05:54:42;97284.88;;;12.97;66.17
40992;BME280;29633;49.168;9.848;2023-04-19T05:57:08;97292.44;;;13.00;66.35
40992;BME280;29633;49.168;9.848;2023-04-19T05:59:34;97289.56;;;13.03;66.20
40992;BME280;29633;49.168;9.848;2023-04-19T06:02:00;97286.97;;;13.03;66.48
40992;BME280;29633;49.168;9.848;2023-04-19T06:04:26;97286.03;;;13.04;66.38
40992;BME280;29633;49.168;9.848;2023-04-19T06:06:52;97287.34;;;13.09;66.53
40992;BME280;29633;49.168;9.848;2023-04-19T06:09:17;97287.78;;;13.14;66.28
40992;BME280;29633;49.168;9.848;2023-04-19T06:11:44;97281.75;;;13.14;66.41
40992;BME280;29633;49.168;9.848;2023-04-19T06:14:10;97289.44;;;13.15;66.34
40992;BME280;29633;49.168;9.848;2023-04-19T06:16:38;97287.50;;;13.17;66.40
40992;BME280;29633;49.168;9.848;2023-04-19T06:19:04;97287.16;;;13.22;66.38
40992;BME280;29633;49.168;9.848;2023-04-19T06:21:30;97292.09;;;13.25;66.49
40992;BME280;29633;49.168;9.848;2023-04-19T06:23:57;97289.38;;;13.26;66.50
40992;BME280;29633;49.168;9.848;2023-04-19T06:26:23;97285.84;;;13.27;66.66
40992;BME280;29633;49.168;9.848;2023-04-19T06:28:48;97288.03;;;13.32;66.55
40992;BME280;29633;49.168;9.848;2023-04-19T06:31:14;97285.44;;;13.32;66.61
40992;BME280;29633;49.168;9.848;2023-04-19T06:33:39;97290.78;;;13.30;66.63
40992;BME280;29633;49.168;9.848;2023-04-19T06:36:05;97299.00;;;13.36;66.49
40992;BME280;29633;49.168;9.848;2023-04-19T06:38:31;97293.53;;;13.39;66.61
40992;BME280;29633;49.168;9.848;2023-04-19T06:40:57;97302.66;;;13.44;66.50
40992;BME280;29633;49.168;9.848;2023-04-19T06:43:23;97295.50;;;13.46;66.82
40992;BME280;29633;49.168;9.848;2023-04-19T06:45:48;97307.47;;;13.49;66.67
40992;BME280;29633;49.168;9.848;2023-04-19T06:48:14;97311.59;;;13.51;66.65
40992;BME280;29633;49.168;9.848;2023-04-19T06:50:40;97302.69;;;13.54;66.64
40992;BME280;29633;49.168;9.848;2023-04-19T06:53:05;97301.63;;;13.56;66.81
40992;BME280;29633;49.168;9.848;2023-04-19T06:55:31;97301.09;;;13.62;66.73
40992;BME280;29633;49.168;9.848;2023-04-19T06:57:56;97299.91;;;13.66;66.56
40992;BME280;29633;49.168;9.848;2023-04-19T07:00:22;97298.69;;;13.70;66.73
40992;BME280;29633;49.168;9.848;2023-04-19T07:02:49;97293.91;;;13.75;66.65
40992;BME280;29633;49.168;9.848;2023-04-19T07:05:15;97295.28;;;13.79;66.71
40992;BME280;29633;49.168;9.848;2023-04-19T07:07:40;97295.03;;;13.82;66.69
40992;BME280;29633;49.168;9.848;2023-04-19T07:10:07;97291.19;;;13.87;66.66
40992;BME280;29633;49.168;9.848;2023-04-19T07:12:33;97288.22;;;13.91;66.78
40992;BME280;29633;49.168;9.848;2023-04-19T07:14:59;97280.00;;;13.96;66.77
40992;BME280;29633;49.168;9.848;2023-04-19T07:17:24;97281.41;;;14.00;66.88
40992;BME280;29633;49.168;9.848;2023-04-19T07:19:50;97282.53;;;14.07;66.78
40992;BME280;29633;49.168;9.848;2023-04-19T07:22:16;97282.94;;;14.12;66.85
40992;BME280;29633;49.168;9.848;2023-04-19T07:24:41;97268.56;;;14.17;66.82
40992;BME280;29633;49.168;9.848;2023-04-19T07:27:08;97272.53;;;14.21;66.86
40992;BME280;29633;49.168;9.848;2023-04-19T07:29:34;97269.66;;;14.24;66.82
40992;BME280;29633;49.168;9.848;2023-04-19T07:32:01;97261.41;;;14.29;66.86
40992;BME280;29633;49.168;9.848;2023-04-19T07:34:27;97261.97;;;14.32;66.88
40992;BME280;29633;49.168;9.848;2023-04-19T07:36:52;97258.72;;;14.40;66.92
40992;BME280;29633;49.168;9.848;2023-04-19T07:39:18;97261.78;;;14.45;66.79
40992;BME280;29633;49.168;9.848;2023-04-19T07:41:43;97257.94;;;14.49;66.84
40992;BME280;29633;49.168;9.848;2023-04-19T07:44:11;97263.56;;;14.54;66.91
40992;BME280;29633;49.168;9.848;2023-04-19T07:46:38;97256.28;;;14.58;66.96
40992;BME280;29633;49.168;9.848;2023-04-19T07:49:04;97256.81;;;14.61;66.94
40992;BME280;29633;49.168;9.848;2023-04-19T07:51:29;97263.44;;;14.65;66.86
40992;BME280;29633;49.168;9.848;2023-04-19T07:53:55;97257.81;;;14.70;66.91
40992;BME280;29633;49.168;9.848;2023-04-19T07:56:21;97261.13;;;14.72;66.84
40992;BME280;29633;49.168;9.848;2023-04-19T07:58:47;97252.31;;;14.73;66.90
40992;BME280;29633;49.168;9.848;2023-04-19T08:01:13;97241.75;;;14.74;67.13
40992;BME280;29633;49.168;9.848;2023-04-19T08:03:38;97249.28;;;14.77;67.03
40992;BME280;29633;49.168;9.848;2023-04-19T08:06:05;97251.63;;;14.81;66.99
40992;BME280;29633;49.168;9.848;2023-04-19T08:08:32;97246.28;;;14.82;66.97
40992;BME280;29633;49.168;9.848;2023-04-19T08:10:58;97248.75;;;14.84;67.04
40992;BME280;29633;49.168;9.848;2023-04-19T08:13:24;97241.72;;;14.84;66.97
40992;BME280;29633;49.168;9.848;2023-04-19T08:15:49;97238.06;;;14.87;67.06
40992;BME280;29633;49.168;9.848;2023-04-19T08:18:15;97237.75;;;14.90;66.99
40992;BME280;29633;49.168;9.848;2023-04-19T08:20:41;97240.91;;;14.93;67.03
40992;BME280;29633;49.168;9.848;2023-04-19T08:23:07;97231.97;;;14.96;67.08
40992;BME280;29633;49.168;9.848;2023-04-19T08:25:33;97241.19;;;15.00;66.96
40992;BME280;29633;49.168;9.848;2023-04-19T08:27:59;97228.81;;;15.02;66.93
40992;BME280;29633;49.168;9.848;2023-04-19T08:30:25;97231.97;;;15.05;67.00
40992;BME280;29633;49.168;9.848;2023-04-19T08:32:51;97231.72;;;15.08;66.97
40992;BME280;29633;49.168;9.848;2023-04-19T08:35:16;97230.59;;;15.11;66.97
40992;BME280;29633;49.168;9.848;2023-04-19T08:37:42;97232.78;;;15.15;66.98
40992;BME280;29633;49.168;9.848;2023-04-19T08:40:08;97227.41;;;15.17;67.11
40992;BME280;29633;49.168;9.848;2023-04-19T08:42:35;97227.94;;;15.20;67.15
40992;BME280;29633;49.168;9.848;2023-04-19T08:45:02;97225.75;;;15.25;66.85
40992;BME280;29633;49.168;9.848;2023-04-19T08:47:31;97222.97;;;15.27;67.07
40992;BME280;29633;49.168;9.848;2023-04-19T08:49:59;97219.81;;;15.33;67.13
40992;BME280;29633;49.168;9.848;2023-04-19T08:52:25;97216.94;;;15.36;66.95
40992;BME280;29633;49.168;9.848;2023-04-19T08:54:51;97219.13;;;15.41;67.01
40992;BME280;29633;49.168;9.848;2023-04-19T08:57:18;97204.78;;;15.45;66.92
40992;BME280;29633;49.168;9.848;2023-04-19T08:59:44;97207.00;;;15.49;67.12
40992;BME280;29633;49.168;9.848;2023-04-19T09:02:13;97204.81;;;15.54;66.99
40992;BME280;29633;49.168;9.848;2023-04-19T09:04:39;97207.78;;;15.59;67.01
40992;BME280;29633;49.168;9.848;2023-04-19T09:07:05;97204.09;;;15.62;67.01
40992;BME280;29633;49.168;9.848;2023-04-19T09:09:33;97198.41;;;15.66;67.09
40992;BME280;29633;49.168;9.848;2023-04-19T09:12:02;97201.41;;;15.71;67.04
40992;BME280;29633;49.168;9.848;2023-04-19T09:14:28;97198.50;;;15.74;66.93
40992;BME280;29633;49.168;9.848;2023-04-19T09:17:08;97201.66;;;15.78;66.95
40992;BME280;29633;49.168;9.848;2023-04-19T09:19:46;97197.25;;;15.79;66.95
40992;BME280;29633;49.168;9.848;2023-04-19T09:22:12;97204.16;;;15.80;66.81
40992;BME280;29633;49.168;9.848;2023-04-19T09:24:38;97198.09;;;15.79;67.02
40992;BME280;29633;49.168;9.848;2023-04-19T09:27:04;97197.25;;;15.79;66.84
40992;BME280;29633;49.168;9.848;2023-04-19T09:29:30;97198.09;;;15.79;66.88
40992;BME280;29633;49.168;9.848;2023-04-19T09:31:57;97201.22;;;15.83;66.88
40992;BME280;29633;49.168;9.848;2023-04-19T09:34:23;97197.97;;;15.81;66.99
40992;BME280;29633;49.168;9.848;2023-04-19T09:36:48;97210.03;;;15.82;66.98
40992;BME280;29633;49.168;9.848;2023-04-19T09:39:34;97195.34;;;15.81;66.95
40992;BME280;29633;49.168;9.848;2023-04-19T09:42:00;97191.59;;;15.83;66.88
40992;BME280;29633;49.168;9.848;2023-04-19T09:44:26;97189.28;;;15.80;66.89
40992;BME280;29633;49.168;9.848;2023-04-19T09:46:52;97200.16;;;15.75;66.94
40992;BME280;29633;49.168;9.848;2023-04-19T09:49:23;97199.75;;;15.70;66.99
40992;BME280;29633;49.168;9.848;2023-04-19T09:51:51;97198.16;;;15.69;67.01
40992;BME280;29633;49.168;9.848;2023-04-19T09:54:19;97189.59;;;15.67;67.10
40992;BME280;29633;49.168;9.848;2023-04-19T09:56:45;97194.28;;;15.64;67.06
40992;BME280;29633;49.168;9.848;2023-04-19T09:59:11;97189.91;;;15.64;66.92
40992;BME280;29633;49.168;9.848;2023-04-19T10:01:52;97189.06;;;15.64;66.75
40992;BME280;29633;49.168;9.848;2023-04-19T10:04:18;97190.72;;;15.65;66.91
40992;BME280;29633;49.168;9.848;2023-04-19T10:06:49;97187.41;;;15.63;66.68
40992;BME280;29633;49.168;9.848;2023-04-19T10:09:19;97186.31;;;15.65;66.74
40992;BME280;29633;49.168;9.848;2023-04-19T10:11:50;97183.84;;;15.64;66.80
40992;BME280;29633;49.168;9.848;2023-04-19T10:14:23;97190.84;;;15.63;66.75
40992;BME280;29633;49.168;9.848;2023-04-19T10:16:49;97191.84;;;15.62;66.67
40992;BME280;29633;49.168;9.848;2023-04-19T10:19:19;97182.47;;;15.60;66.68
40992;BME280;29633;49.168;9.848;2023-04-19T10:21:46;97179.03;;;15.59;66.69
40992;BME280;29633;49.168;9.848;2023-04-19T10:24:13;97186.88;;;15.59;66.58
40992;BME280;29633;49.168;9.848;2023-04-19T10:29:58;97178.66;;;15.54;66.72
40992;BME280;29633;49.168;9.848;2023-04-19T10:32:38;97180.88;;;15.49;66.65
40992;BME280;29633;49.168;9.848;2023-04-19T10:35:09;97175.78;;;15.48;66.63
40992;BME280;29633;49.168;9.848;2023-04-19T10:37:38;97177.69;;;15.46;66.48
40992;BME280;29633;49.168;9.848;2023-04-19T10:40:08;97177.56;;;15.47;66.54
40992;BME280;29633;49.168;9.848;2023-04-19T10:45:36;97170.69;;;15.46;66.44
40992;BME280;29633;49.168;9.848;2023-04-19T10:48:02;97167.41;;;15.44;66.55
40992;BME280;29633;49.168;9.848;2023-04-19T10:50:29;97165.75;;;15.43;66.57
40992;BME280;29633;49.168;9.848;2023-04-19T10:52:54;97166.03;;;15.40;66.51
40992;BME280;29633;49.168;9.848;2023-04-19T10:55:20;97165.22;;;15.40;66.61
40992;BME280;29633;49.168;9.848;2023-04-19T10:58:12;97159.28;;;15.38;66.59
40992;BME280;29633;49.168;9.848;2023-04-19T11:00:38;97157.69;;;15.37;66.54
40992;BME280;29633;49.168;9.848;2023-04-19T11:06:18;97155.59;;;15.31;66.65
40992;BME280;29633;49.168;9.848;2023-04-19T11:08:47;97150.38;;;15.31;66.63
40992;BME280;29633;49.168;9.848;2023-04-19T11:11:12;97146.16;;;15.30;66.58
40992;BME280;29633;49.168;9.848;2023-04-19T11:13:42;97154.13;;;15.28;66.75
40992;BME280;29633;49.168;9.848;2023-04-19T11:16:09;97145.63;;;15.26;66.61
40992;BME280;29633;49.168;9.848;2023-04-19T11:18:34;97145.75;;;15.24;66.60
40992;BME280;29633;49.168;9.848;2023-04-19T11:21:00;97150.13;;;15.24;66.55
40992;BME280;29633;49.168;9.848;2023-04-19T11:23:26;97144.91;;;15.24;66.60
40992;BME280;29633;49.168;9.848;2023-04-19T11:25:52;97146.16;;;15.20;66.51
40992;BME280;29633;49.168;9.848;2023-04-19T11:28:18;97130.94;;;15.15;66.61
40992;BME280;29633;49.168;9.848;2023-04-19T11:30:43;97141.66;;;15.12;66.56
40992;BME280;29633;49.168;9.848;2023-04-19T11:33:11;97142.34;;;15.14;66.42
40992;BME280;29633;49.168;9.848;2023-04-19T11:35:37;97137.94;;;15.15;66.44
40992;BME280;29633;49.168;9.848;2023-04-19T11:38:02;97131.75;;;15.16;66.47
40992;BME280;29633;49.168;9.848;2023-04-19T11:40:30;97133.56;;;15.15;66.48
40992;BME280;29633;49.168;9.848;2023-04-19T11:43:01;97140.56;;;15.15;66.42
40992;BME280;29633;49.168;9.848;2023-04-19T11:45:34;97131.75;;;15.16;66.53
40992;BME280;29633;49.168;9.848;2023-04-19T11:48:01;97118.56;;;15.17;66.42
40992;BME280;29633;49.168;9.848;2023-04-19T11:50:44;97122.66;;;15.20;66.34
40992;BME280;29633;49.168;9.848;2023-04-19T11:53:14;97120.34;;;15.17;66.42
40992;BME280;29633;49.168;9.848;2023-04-19T11:55:42;97116.06;;;15.16;66.57
40992;BME280;29633;49.168;9.848;2023-04-19T11:58:07;97116.59;;;15.19;66.35
40992;BME280;29633;49.168;9.848;2023-04-19T12:00:36;97115.53;;;15.22;66.38
40992;BME280;29633;49.168;9.848;2023-04-19T12:03:01;97110.00;;;15.25;66.45
40992;BME280;29633;49.168;9.848;2023-04-19T12:05:28;97102.00;;;15.26;66.26
40992;BME280;29633;49.168;9.848;2023-04-19T12:10:26;97088.69;;;15.30;66.33
40992;BME280;29633;49.168;9.848;2023-04-19T12:12:51;97090.84;;;15.34;66.31
40992;BME280;29633;49.168;9.848;2023-04-19T12:15:17;97083.28;;;15.41;66.21
40992;BME280;29633;49.168;9.848;2023-04-19T12:17:59;97076.38;;;15.49;66.23
40992;BME280;29633;49.168;9.848;2023-04-19T12:20:32;97079.59;;;15.61;66.25
40992;BME280;29633;49.168;9.848;2023-04-19T12:22:58;97078.56;;;15.71;66.23
40992;BME280;29633;49.168;9.848;2023-04-19T12:25:31;97070.38;;;15.84;66.19
40992;BME280;29633;49.168;9.848;2023-04-19T12:27:58;97068.22;;;15.97;66.01
40992;BME280;29633;49.168;9.848;2023-04-19T12:30:24;97063.94;;;16.14;66.11
40992;BME280;29633;49.168;9.848;2023-04-19T12:32:51;97059.47;;;16.24;66.36
40992;BME280;29633;49.168;9.848;2023-04-19T12:35:26;97058.41;;;16.35;66.05
40992;BME280;29633;49.168;9.848;2023-04-19T12:37:52;97062.72;;;16.44;66.11
40992;BME280;29633;49.168;9.848;2023-04-19T12:40:19;97059.34;;;16.51;66.02
40992;BME280;29633;49.168;9.848;2023-04-19T12:42:44;97055.16;;;16.58;65.93
40992;BME280;29633;49.168;9.848;2023-04-19T12:45:13;97049.31;;;16.64;66.15
40992;BME280;29633;49.168;9.848;2023-04-19T12:47:40;97052.16;;;16.71;65.95
40992;BME280;29633;49.168;9.848;2023-04-19T12:50:07;97052.50;;;16.76;66.02
40992;BME280;29633;49.168;9.848;2023-04-19T12:52:33;97039.78;;;16.81;66.04
40992;BME280;29633;49.168;9.848;2023-04-19T12:54:58;97041.91;;;16.86;65.95
40992;BME280;29633;49.168;9.848;2023-04-19T12:57:24;97035.09;;;16.93;66.07
40992;BME280;29633;49.168;9.848;2023-04-19T12:59:50;97028.41;;;16.98;65.94
40992;BME280;29633;49.168;9.848;2023-04-19T13:02:15;97029.88;;;17.01;66.01
40992;BME280;29633;49.168;9.848;2023-04-19T13:04:41;97022.69;;;17.03;66.01
40992;BME280;29633;49.168;9.848;2023-04-19T13:07:07;97033.00;;;17.04;66.03
40992;BME280;29633;49.168;9.848;2023-04-19T13:09:32;97023.22;;;17.06;65.99